EmailTwitter


Observations de surface / Québec / CYHU (71371)

Régions: Québec | Canada | États-Unis | Europe | France | UK | Elsewhere
Station
Affichage
Infos & localisation pour CYHU (71371) | Aide pour décoder les METARs

Observations prises le 2017-02-23 à 02H00 UTC à MONTREAL/ST HUBE, QB (CYHU)

Température: 2.0 Celsius

Point de rosée: 0.0 Celsius

Humidité relative: 87%

Vents: Calme à 0 km/h ou 0 noeuds.

Pression au niveau moyen de la mer: 101.01 kilopascals.

Calage altimétrique: 100.98 kilopascals ou 29.82 pouces de mercure.

Observation METAR:

CYHU 230200Z AUTO 00000KT SCT043 SCT055 BKN068 02/00 A2982 RMK WX MISG VIS MISG

PCPN MISG SLP101=